Terminal Aerodrome Forecast
Issued by NWS

Home | Current Version | Previous Version | Graphics & Text | Print | Product List | Glossary On
Versions: 1 2 3 4 5 6 7 8 9 10 11 12 13
788
FTUS43 KIWX 200537
TAFSBN
TAF
KSBN 200537Z 2006/2106 22013G19KT P6SM SCT250 WS020/24050KT
     FM201300 22010KT P6SM SCT035
     FM202200 22008KT 5SM BR BKN010
     FM210300 20005KT 1 1/2SM BR OVC008=

USA.gov is the U.S. government's official web portal to all federal, state and local government web resources and services.